Cracovia, Polonia

05:35 PM CET on februarie 01, 2015 (GMT +0100)
John Paul II International / Krakow-Balice | Change Station
CLOSE
Current Station
Aeroport
Location: Krakow,
Elevation: 778 ft
Nearby Weather Stations

Elev 778 ft 50.08 °N, 19.80 °E | Updated 5 minutes ago

Clear
Cer senin
28 °F
Feels Like 28 °F
N
0
Vânt variabil Vânt from nord

astăzi
High -- | Low -- °F
--% Chance of Precip.
Ieri
High -- | Low -- °F
Precip. -- inch
7:15 AM 4:34 PM
Lună în creştere, 95% visible
Presiunea 29.30 inch
Vizibilitatea 5.0 mile
Nori
Punctul de rouă 25 °F
Umiditatea 86%
Precipitaţii 0.00 inch
Adâncimea zăpezii Not available.
UV Not available.
Pollen Not available.
Calitatea aerului Not available.
Flu Activity Not available.
METAR EPKK 011630Z 00000KT 8000 NSC M02/M04 Q0992 R25/12//95

More Conditions Fewer Conditions

Presiunea 29.30 inch
Vizibilitatea 5.0 mile
Nori
Punctul de rouă 25 °F
Umiditatea 86%
Precipitaţii 0.00 inch
Adâncimea zăpezii Not available.
UV Not available.
Pollen Not available.
Calitatea aerului Not available.
Flu Activity Not available.
METAR EPKK 011630Z 00000KT 8000 NSC M02/M04 Q0992 R25/12//95

More Conditions Fewer Conditions

10-Day Weather Forecast

Almanac

Astronomie

Feb. 01, 2015 Răsărit Apus
Timpul Actual
Crepusculul Civil
Crepusculul nautic
Răsărit Astronomic
Luna
Durata zilei lumină
Lungimea zilei
Tomorrow will be .
, % of the Moon is Illuminated

Extremele de azi

Country Highs Country Lows

Community

WunderPhotos

Upload Photos

1,792,362 photos uploaded!

WunderBlogs® & News

Nearby

Calitatea aerului

  Calitatea aerului Index de calitate a aerului Poluat
Not available.

Adâncimea zapezii

Station Depth Elevation

Earthquake Activity

Oraş Distance Mag. Time & Date
Minimum magnitude displayed is 2.5.

Coastal Water Temperatures

Locul Temperatura

Nearby Weather Stations